createdAt,value
2023-08-15T00:00:42.589Z,23.30
2023-08-15T00:04:43.755Z,23.30
2023-08-15T00:08:45.347Z,23.50
2023-08-15T00:12:46.863Z,23.50
2023-08-15T00:16:48.003Z,23.60
2023-08-15T00:20:49.182Z,23.30
2023-08-15T00:24:50.249Z,23.30
2023-08-15T00:28:52.002Z,23.20
2023-08-15T00:32:53.242Z,23.10
2023-08-15T00:36:54.462Z,22.90
2023-08-15T00:40:55.769Z,23.10
2023-08-15T00:44:57.646Z,23.20
2023-08-15T00:49:00.374Z,23.20
2023-08-15T00:53:03.450Z,22.90
2023-08-15T00:57:06.776Z,22.70
2023-08-15T01:01:11.073Z,22.50
2023-08-15T01:05:16.540Z,22.50
2023-08-15T01:09:17.572Z,22.60
2023-08-15T01:13:31.493Z,22.40
2023-08-15T01:17:36.345Z,22.30
2023-08-15T01:21:41.185Z,22.20
2023-08-15T01:25:43.915Z,22.30
2023-08-15T01:29:44.904Z,22.50
2023-08-15T01:34:01.999Z,22.40
2023-08-15T01:38:09.964Z,22.60
2023-08-15T01:42:11.529Z,22.60
2023-08-15T01:46:14.057Z,22.10
2023-08-15T01:50:15.086Z,22.30
2023-08-15T01:54:16.354Z,22.40
2023-08-15T01:58:17.512Z,22.30
2023-08-15T02:02:18.699Z,22.00
2023-08-15T02:06:19.688Z,22.20
2023-08-15T02:10:21.237Z,22.40
2023-08-15T02:14:22.429Z,22.40
2023-08-15T02:18:26.820Z,22.50
2023-08-15T02:22:27.962Z,22.50
2023-08-15T02:26:29.115Z,22.70
2023-08-15T02:30:32.254Z,22.50
2023-08-15T02:34:33.536Z,22.70
2023-08-15T02:38:35.476Z,22.60
2023-08-15T02:42:36.652Z,22.60
2023-08-15T02:46:38.193Z,22.60
2023-08-15T02:50:39.308Z,22.70
2023-08-15T02:54:40.466Z,22.80
2023-08-15T02:58:42.180Z,22.60
2023-08-15T03:02:43.463Z,22.70
2023-08-15T03:06:44.792Z,22.60
2023-08-15T03:10:45.952Z,22.20
2023-08-15T03:14:47.120Z,21.90
2023-08-15T03:18:48.488Z,22.40
2023-08-15T03:22:49.511Z,22.70
2023-08-15T03:26:50.796Z,22.70
2023-08-15T03:30:52.477Z,22.60
2023-08-15T03:34:53.750Z,22.40
2023-08-15T03:38:55.121Z,22.30
2023-08-15T03:42:56.299Z,22.20
2023-08-15T03:46:57.413Z,21.40
2023-08-15T03:51:00.758Z,19.70
2023-08-15T03:55:02.416Z,20.70
2023-08-15T03:59:03.662Z,22.40
2023-08-15T04:03:05.237Z,22.90
2023-08-15T04:07:06.403Z,23.10
2023-08-15T04:11:07.554Z,23.40
2023-08-15T04:15:09.142Z,22.80
2023-08-15T04:19:10.166Z,21.80
2023-08-15T04:23:11.423Z,20.90
2023-08-15T04:27:12.987Z,21.60
2023-08-15T04:31:14.583Z,21.30
2023-08-15T04:35:15.980Z,21.10
2023-08-15T04:39:18.956Z,21.20
2023-08-15T04:43:20.380Z,21.10
2023-08-15T04:47:21.690Z,20.20
2023-08-15T04:51:23.073Z,19.90
2023-08-15T04:55:24.358Z,19.50
2023-08-15T04:59:25.667Z,20.00
2023-08-15T05:03:26.849Z,20.20
2023-08-15T05:07:27.833Z,19.10
2023-08-15T05:11:29.029Z,19.30
2023-08-15T05:15:30.328Z,19.80
2023-08-15T05:19:31.548Z,20.40
2023-08-15T05:23:32.636Z,21.40
2023-08-15T05:27:33.979Z,20.60
2023-08-15T05:31:35.163Z,21.00
2023-08-15T05:35:36.203Z,21.80
2023-08-15T05:39:37.479Z,22.20
2023-08-15T05:43:39.186Z,22.60
2023-08-15T05:47:40.629Z,22.90
2023-08-15T05:51:41.920Z,23.20
2023-08-15T05:55:45.970Z,22.80
2023-08-15T05:59:47.177Z,23.20
2023-08-15T06:03:53.009Z,23.50
2023-08-15T06:07:51.249Z,23.80
2023-08-15T06:11:52.461Z,24.10
2023-08-15T06:15:53.519Z,24.40
2023-08-15T06:19:54.934Z,24.40
2023-08-15T06:23:55.989Z,22.80
2023-08-15T06:27:57.179Z,23.00
2023-08-15T06:31:59.210Z,24.30
2023-08-15T06:36:00.379Z,25.00
2023-08-15T06:40:01.664Z,24.80
2023-08-15T06:44:02.987Z,24.80
2023-08-15T06:48:06.022Z,25.10
2023-08-15T06:52:10.200Z,25.00
2023-08-15T06:56:11.777Z,25.40
2023-08-15T07:00:14.025Z,25.40
2023-08-15T07:04:15.058Z,26.00
2023-08-15T07:08:16.766Z,26.80
2023-08-15T07:12:19.062Z,27.30
2023-08-15T07:16:21.825Z,27.90
2023-08-15T07:20:23.054Z,27.60
2023-08-15T07:24:24.099Z,27.50
2023-08-15T07:28:25.297Z,27.50
2023-08-15T07:32:29.562Z,27.60
2023-08-15T07:36:30.802Z,28.30
2023-08-15T07:40:32.092Z,28.00
2023-08-15T07:44:33.162Z,28.40
2023-08-15T07:48:34.243Z,27.30
2023-08-15T07:52:35.484Z,27.80
2023-08-15T07:56:36.767Z,27.90
2023-08-15T08:00:37.848Z,28.50
2023-08-15T08:04:40.955Z,28.00
2023-08-15T08:08:42.401Z,28.60
2023-08-15T08:12:43.718Z,28.30
2023-08-15T08:16:45.287Z,27.90
2023-08-15T08:20:46.663Z,28.60
2023-08-15T08:24:52.863Z,28.30
2023-08-15T08:28:54.147Z,29.00
2023-08-15T08:32:55.281Z,28.60
2023-08-15T08:36:56.516Z,27.70
2023-08-15T08:40:58.210Z,28.00
2023-08-15T08:45:00.787Z,27.70
2023-08-15T08:49:04.048Z,28.10
2023-08-15T08:53:05.651Z,27.50
2023-08-15T08:57:07.859Z,27.70
2023-08-15T09:01:10.170Z,28.70
2023-08-15T09:05:12.742Z,29.10
2023-08-15T09:09:13.828Z,28.60
2023-08-15T09:13:18.870Z,27.50
2023-08-15T09:17:24.213Z,28.20
2023-08-15T09:21:27.832Z,28.70
2023-08-15T09:25:30.525Z,28.70
2023-08-15T09:29:34.645Z,29.60
2023-08-15T09:33:38.210Z,29.60
2023-08-15T09:37:44.935Z,29.50
2023-08-15T09:41:48.798Z,30.40
2023-08-15T09:45:50.058Z,30.40
2023-08-15T09:49:52.848Z,30.60
2023-08-15T09:53:54.457Z,31.20
2023-08-15T09:57:55.639Z,30.40
2023-08-15T10:01:58.985Z,30.70
2023-08-15T10:06:01.846Z,30.50
2023-08-15T10:10:04.573Z,29.80
2023-08-15T10:14:07.794Z,29.80
2023-08-15T10:18:11.277Z,29.50
2023-08-15T10:22:16.197Z,30.00
2023-08-15T10:26:17.932Z,30.90
2023-08-15T10:30:35.382Z,31.10
2023-08-15T10:34:36.638Z,31.50
2023-08-15T10:38:44.162Z,30.90
2023-08-15T10:43:01.641Z,31.30
2023-08-15T10:47:06.830Z,31.50
2023-08-15T10:51:26.116Z,30.40
2023-08-15T10:55:28.799Z,30.50
2023-08-15T10:59:30.090Z,31.20
2023-08-15T11:03:32.606Z,30.40
2023-08-15T11:07:33.742Z,29.40
2023-08-15T11:11:34.830Z,29.00
2023-08-15T11:15:36.054Z,27.70
2023-08-15T11:19:37.306Z,27.10
2023-08-15T11:23:39.464Z,26.90
2023-08-15T11:27:41.749Z,26.70
2023-08-15T11:31:43.192Z,26.40
2023-08-15T11:35:47.262Z,25.50
2023-08-15T11:39:53.079Z,25.10
2023-08-15T11:43:54.317Z,25.20
2023-08-15T11:47:58.508Z,25.30
2023-08-15T11:52:03.742Z,25.20
2023-08-15T11:56:04.803Z,25.30
2023-08-15T12:00:06.830Z,25.10
2023-08-15T12:04:08.189Z,24.70
2023-08-15T12:08:09.640Z,24.80
2023-08-15T12:12:20.122Z,25.30
2023-08-15T12:16:21.759Z,25.60
2023-08-15T12:20:22.968Z,26.00
2023-08-15T12:24:24.114Z,25.90
2023-08-15T12:28:25.352Z,26.40
2023-08-15T12:32:28.408Z,26.20
2023-08-15T12:36:29.715Z,25.70
2023-08-15T12:40:31.851Z,24.80
2023-08-15T12:44:32.999Z,24.30
2023-08-15T12:48:34.007Z,24.30
2023-08-15T12:52:35.342Z,25.10
2023-08-15T12:56:36.829Z,26.00
2023-08-15T13:00:40.096Z,26.40
2023-08-15T13:04:41.480Z,26.10
2023-08-15T13:08:42.489Z,25.80
2023-08-15T13:12:43.626Z,26.10
2023-08-15T13:16:44.790Z,26.20
2023-08-15T13:20:46.101Z,25.60
2023-08-15T13:24:47.410Z,25.10
2023-08-15T13:28:49.236Z,25.10
2023-08-15T13:32:50.444Z,25.10
2023-08-15T13:36:51.569Z,25.30
2023-08-15T13:40:52.634Z,24.90
2023-08-15T13:44:53.784Z,25.00
2023-08-15T13:48:55.078Z,25.50
2023-08-15T13:52:56.114Z,24.20
2023-08-15T13:56:57.447Z,24.60
2023-08-15T14:00:58.679Z,25.00
2023-08-15T14:04:59.836Z,25.60
2023-08-15T14:09:00.919Z,24.30
2023-08-15T14:13:02.532Z,24.50
2023-08-15T14:17:03.654Z,25.80
2023-08-15T14:21:04.826Z,26.30
2023-08-15T14:25:07.289Z,25.60
2023-08-15T14:29:08.330Z,26.10
2023-08-15T14:33:10.254Z,26.20
2023-08-15T14:37:11.382Z,26.30
2023-08-15T14:41:12.420Z,25.60
2023-08-15T14:45:13.586Z,25.80
2023-08-15T14:49:15.103Z,26.60
2023-08-15T14:53:17.009Z,27.60
2023-08-15T14:57:18.640Z,27.80
2023-08-15T15:01:20.294Z,27.20
2023-08-15T15:05:23.203Z,26.10
2023-08-15T15:09:24.382Z,27.00
2023-08-15T15:13:25.441Z,27.60
2023-08-15T15:17:27.008Z,27.00
2023-08-15T15:21:28.290Z,26.90
2023-08-15T15:25:29.461Z,27.80
2023-08-15T15:29:30.980Z,28.10
2023-08-15T15:33:32.042Z,27.30
2023-08-15T15:37:33.293Z,28.00
2023-08-15T15:41:34.369Z,27.90
2023-08-15T15:45:36.989Z,28.20
2023-08-15T15:49:38.070Z,28.30
2023-08-15T15:53:39.164Z,28.10
2023-08-15T15:57:40.284Z,27.20
2023-08-15T16:01:41.474Z,27.40
2023-08-15T16:05:42.632Z,27.30
2023-08-15T16:09:45.433Z,27.30
2023-08-15T16:13:46.491Z,27.20
2023-08-15T16:17:47.639Z,27.60
2023-08-15T16:21:49.014Z,27.50
2023-08-15T16:25:50.840Z,27.70
2023-08-15T16:29:54.533Z,27.10
2023-08-15T16:33:55.077Z,26.50
2023-08-15T16:37:56.143Z,26.00
2023-08-15T16:41:57.216Z,25.90
2023-08-15T16:45:58.268Z,26.10
2023-08-15T16:50:00.193Z,26.70
2023-08-15T16:54:01.374Z,27.00
2023-08-15T16:58:02.551Z,27.20
2023-08-15T17:02:03.655Z,27.30
2023-08-15T17:06:05.054Z,27.40
2023-08-15T17:10:06.659Z,27.00
2023-08-15T17:14:07.757Z,27.30
2023-08-15T17:18:08.965Z,26.80
2023-08-15T17:22:10.008Z,26.90
2023-08-15T17:26:11.310Z,26.80
2023-08-15T17:30:13.369Z,27.00
2023-08-15T17:34:14.424Z,27.20
2023-08-15T17:38:15.621Z,26.80
2023-08-15T17:42:17.280Z,26.00
2023-08-15T17:46:18.531Z,24.90
2023-08-15T17:50:19.772Z,25.10
2023-08-15T17:54:20.982Z,24.90
2023-08-15T17:58:22.352Z,24.20
2023-08-15T18:02:23.718Z,23.60
2023-08-15T18:06:25.020Z,24.50
2023-08-15T18:10:26.352Z,25.10
2023-08-15T18:14:30.897Z,23.70
2023-08-15T18:18:32.106Z,23.10
2023-08-15T18:22:33.265Z,24.00
2023-08-15T18:26:34.514Z,24.30
2023-08-15T18:30:35.624Z,24.10
2023-08-15T18:34:37.236Z,24.40
2023-08-15T18:38:39.139Z,24.40
2023-08-15T18:42:40.154Z,24.40
2023-08-15T18:46:42.798Z,24.60
2023-08-15T18:50:44.444Z,24.90
2023-08-15T18:54:45.497Z,25.20
2023-08-15T18:58:46.714Z,25.10
2023-08-15T19:02:48.174Z,24.90
2023-08-15T19:06:49.243Z,24.20
2023-08-15T19:10:50.276Z,24.70
2023-08-15T19:14:51.345Z,24.80
2023-08-15T19:18:52.388Z,24.70
2023-08-15T19:22:53.849Z,24.70
2023-08-15T19:26:55.084Z,24.60
2023-08-15T19:30:56.534Z,24.30
2023-08-15T19:34:57.625Z,23.70
2023-08-15T19:38:58.875Z,23.70
2023-08-15T19:43:00.061Z,23.50
2023-08-15T19:47:01.569Z,23.00
2023-08-15T19:51:02.963Z,23.60
2023-08-15T19:55:04.805Z,23.30
2023-08-15T19:59:05.778Z,23.20
2023-08-15T20:03:07.195Z,23.40
2023-08-15T20:07:08.420Z,23.70
2023-08-15T20:11:09.446Z,23.50
2023-08-15T20:15:11.122Z,23.30
2023-08-15T20:19:12.293Z,23.30
2023-08-15T20:23:13.323Z,23.10
2023-08-15T20:27:15.206Z,22.90
2023-08-15T20:31:17.064Z,23.00
2023-08-15T20:35:18.264Z,23.00
2023-08-15T20:39:19.941Z,23.00
2023-08-15T20:43:20.995Z,23.00
2023-08-15T20:47:22.087Z,22.70
2023-08-15T20:51:23.459Z,22.60
2023-08-15T20:55:24.611Z,22.80
2023-08-15T20:59:25.680Z,22.80
2023-08-15T21:03:26.680Z,22.70
2023-08-15T21:07:28.294Z,22.60
2023-08-15T21:11:29.287Z,22.50
2023-08-15T21:15:30.339Z,22.70
2023-08-15T21:19:31.403Z,22.50
2023-08-15T21:23:33.466Z,22.40
2023-08-15T21:27:34.837Z,22.50
2023-08-15T21:31:35.826Z,22.20
2023-08-15T21:35:36.989Z,22.50
2023-08-15T21:39:37.958Z,22.30
2023-08-15T21:43:39.226Z,22.20
2023-08-15T21:47:40.306Z,22.10
2023-08-15T21:51:41.488Z,22.10
2023-08-15T21:55:42.513Z,21.90
2023-08-15T21:59:43.841Z,21.90
2023-08-15T22:03:44.915Z,21.80
2023-08-15T22:07:46.080Z,22.00
2023-08-15T22:11:47.344Z,22.00
2023-08-15T22:15:48.374Z,21.90
2023-08-15T22:19:49.383Z,21.90
2023-08-15T22:23:50.619Z,21.70
2023-08-15T22:27:51.648Z,21.60
2023-08-15T22:31:53.247Z,21.70
2023-08-15T22:35:54.525Z,21.60
2023-08-15T22:39:55.927Z,21.50
2023-08-15T22:43:56.997Z,21.30
2023-08-15T22:47:58.136Z,21.70
2023-08-15T22:51:59.084Z,21.60
2023-08-15T22:56:00.995Z,21.50
2023-08-15T23:00:02.593Z,21.70
2023-08-15T23:04:04.105Z,21.80
2023-08-15T23:08:05.541Z,21.80
2023-08-15T23:12:07.592Z,21.80
2023-08-15T23:16:08.680Z,21.60
2023-08-15T23:20:11.074Z,21.60
2023-08-15T23:24:13.239Z,21.60
2023-08-15T23:28:14.302Z,21.50
2023-08-15T23:32:15.505Z,21.60
2023-08-15T23:36:16.710Z,21.50
2023-08-15T23:40:18.334Z,21.30
2023-08-15T23:44:19.648Z,21.50
2023-08-15T23:48:20.826Z,21.30
2023-08-15T23:52:22.020Z,21.10
2023-08-15T23:56:24.991Z,21.50
